createdAt,value
2019-05-05T00:01:34.446Z,13.60
2019-05-05T00:04:14.975Z,8.90
2019-05-05T00:06:44.597Z,13.60
2019-05-05T00:09:14.607Z,8.43
2019-05-05T00:12:14.665Z,8.20
2019-05-05T00:14:54.681Z,10.30
2019-05-05T00:17:25.244Z,14.07
2019-05-05T00:19:55.022Z,10.20
2019-05-05T00:22:31.591Z,9.90
2019-05-05T00:25:01.671Z,10.07
2019-05-05T00:27:38.721Z,9.90
2019-05-05T00:30:08.492Z,8.63
2019-05-05T00:32:37.968Z,10.80
2019-05-05T00:35:09.662Z,9.40
2019-05-05T00:37:39.472Z,12.83
2019-05-05T00:40:08.956Z,8.80
2019-05-05T00:42:39.111Z,11.63
2019-05-05T00:45:10.453Z,7.83
2019-05-05T00:48:01.597Z,11.30
2019-05-05T00:50:34.331Z,8.45
2019-05-05T00:53:05.381Z,9.60
2019-05-05T00:55:35.062Z,9.98
2019-05-05T00:58:05.282Z,10.37
2019-05-05T01:00:45.780Z,10.35
2019-05-05T01:03:18.080Z,12.30
2019-05-05T01:06:04.542Z,14.17
2019-05-05T01:08:35.227Z,11.93
2019-05-05T01:11:05.105Z,10.20
2019-05-05T01:13:35.163Z,17.57
2019-05-05T01:16:04.987Z,11.63
2019-05-05T01:18:35.127Z,12.23
2019-05-05T01:21:06.192Z,10.60
2019-05-05T01:23:37.257Z,15.57
2019-05-05T01:26:07.894Z,12.23
2019-05-05T01:28:38.113Z,11.90
2019-05-05T01:31:14.669Z,11.50
2019-05-05T01:34:02.032Z,10.35
2019-05-05T01:36:31.446Z,10.35
2019-05-05T01:39:15.202Z,14.10
2019-05-05T01:41:49.148Z,11.47
2019-05-05T01:44:18.545Z,14.20
2019-05-05T01:46:48.364Z,12.50
2019-05-05T01:49:18.100Z,11.57
2019-05-05T01:51:47.652Z,9.70
2019-05-05T01:54:18.080Z,11.68
2019-05-05T01:56:48.441Z,14.10
2019-05-05T01:59:18.757Z,12.43
2019-05-05T02:01:48.136Z,11.33
2019-05-05T02:04:18.681Z,12.23
2019-05-05T02:06:48.063Z,12.65
2019-05-05T02:09:18.012Z,11.53
2019-05-05T02:11:47.439Z,10.63
2019-05-05T02:14:18.075Z,11.20
2019-05-05T02:16:47.456Z,11.53
2019-05-05T02:19:21.898Z,12.47
2019-05-05T02:21:51.657Z,17.87
2019-05-05T02:24:21.036Z,14.20
2019-05-05T02:26:50.488Z,13.30
2019-05-05T02:29:28.952Z,19.27
2019-05-05T02:32:25.940Z,16.00
2019-05-05T02:34:58.873Z,12.57
2019-05-05T02:37:28.722Z,15.03
2019-05-05T02:40:03.407Z,19.42
2019-05-05T02:42:31.023Z,16.37
2019-05-05T02:45:05.404Z,17.33
2019-05-05T02:47:58.346Z,16.23
2019-05-05T02:50:48.395Z,15.40
2019-05-05T02:53:04.744Z,24.80
2019-05-05T02:55:35.475Z,17.48
2019-05-05T02:58:04.955Z,19.90
2019-05-05T03:00:54.219Z,20.00
2019-05-05T03:03:25.069Z,19.17
2019-05-05T03:05:55.179Z,20.03
2019-05-05T03:08:26.385Z,16.00
2019-05-05T03:10:56.651Z,18.27
2019-05-05T03:13:27.094Z,19.73
2019-05-05T03:16:15.725Z,17.70
2019-05-05T03:18:45.548Z,18.02
2019-05-05T03:21:17.648Z,17.67
2019-05-05T03:23:48.033Z,21.33
2019-05-05T03:26:18.863Z,18.00
2019-05-05T03:28:54.552Z,17.20
2019-05-05T03:31:26.523Z,21.62
2019-05-05T03:33:57.921Z,24.37
2019-05-05T03:36:29.315Z,17.27
2019-05-05T03:38:58.647Z,17.20
2019-05-05T03:41:35.974Z,17.70
2019-05-05T03:44:25.234Z,18.40
2019-05-05T03:46:55.575Z,15.70
2019-05-05T03:49:25.608Z,18.63
2019-05-05T03:51:55.648Z,18.90
2019-05-05T03:54:25.552Z,17.03
2019-05-05T03:57:10.196Z,17.47
2019-05-05T03:59:44.043Z,15.20
2019-05-05T04:02:28.301Z,16.63
2019-05-05T04:05:00.436Z,17.60
2019-05-05T04:07:30.136Z,16.97
2019-05-05T04:09:59.955Z,16.80
2019-05-05T04:12:29.680Z,18.10
2019-05-05T04:15:01.151Z,17.60
2019-05-05T04:17:39.049Z,16.70
2019-05-05T04:20:33.754Z,19.00
2019-05-05T04:23:03.891Z,22.17
2019-05-05T04:25:35.237Z,19.63
2019-05-05T04:28:05.419Z,18.03
2019-05-05T04:30:35.779Z,19.53
2019-05-05T04:33:06.719Z,19.00
2019-05-05T04:35:36.841Z,22.50
2019-05-05T04:38:07.694Z,19.57
2019-05-05T04:40:43.534Z,22.20
2019-05-05T04:43:14.279Z,19.37
2019-05-05T04:45:44.182Z,20.10
2019-05-05T04:48:19.625Z,19.70
2019-05-05T04:51:07.572Z,20.80
2019-05-05T04:53:55.163Z,20.77
2019-05-05T04:56:29.999Z,18.57
2019-05-05T04:58:59.380Z,20.57
2019-05-05T05:01:29.847Z,18.67
2019-05-05T05:04:09.693Z,18.87
2019-05-05T05:06:43.655Z,17.30
2019-05-05T05:09:14.661Z,20.43
2019-05-05T05:11:45.025Z,20.70
2019-05-05T05:14:15.752Z,17.10
2019-05-05T05:16:45.884Z,18.83
2019-05-05T05:19:17.260Z,19.48
2019-05-05T05:21:58.426Z,18.73
2019-05-05T05:24:23.573Z,22.67
2019-05-05T05:26:52.483Z,22.47
2019-05-05T05:29:26.652Z,20.60
2019-05-05T05:31:57.859Z,22.67
2019-05-05T05:34:27.949Z,18.82
2019-05-05T05:37:04.191Z,20.07
2019-05-05T05:39:55.437Z,21.57
2019-05-05T05:42:25.076Z,17.20
2019-05-05T05:45:14.443Z,21.73
2019-05-05T05:48:04.001Z,19.40
2019-05-05T05:50:44.345Z,18.55
2019-05-05T05:53:14.037Z,19.30
2019-05-05T05:55:44.809Z,20.70
2019-05-05T05:58:15.307Z,22.27
2019-05-05T06:00:44.741Z,20.23
2019-05-05T06:03:14.661Z,18.27
2019-05-05T06:05:44.066Z,20.53
2019-05-05T06:08:14.230Z,21.33
2019-05-05T06:10:44.354Z,17.90
2019-05-05T06:13:15.336Z,22.33
2019-05-05T06:15:46.532Z,24.05
2019-05-05T06:18:19.321Z,23.12
2019-05-05T06:20:49.098Z,23.83
2019-05-05T06:23:18.490Z,19.10
2019-05-05T06:25:48.297Z,20.83
2019-05-05T06:28:18.214Z,24.85
2019-05-05T06:30:47.613Z,23.00
2019-05-05T06:33:20.747Z,20.07
2019-05-05T06:35:53.416Z,21.25
2019-05-05T06:38:24.220Z,23.03
2019-05-05T06:41:17.123Z,23.10
2019-05-05T06:44:06.808Z,21.17
2019-05-05T06:46:55.264Z,21.57
2019-05-05T06:49:25.001Z,22.37
2019-05-05T06:51:55.016Z,21.83
2019-05-05T06:54:24.868Z,24.03
2019-05-05T06:56:54.953Z,22.90
2019-05-05T06:59:24.475Z,21.40
2019-05-05T07:01:54.161Z,24.80
2019-05-05T07:04:24.632Z,19.07
2019-05-05T07:06:57.070Z,19.97
2019-05-05T07:09:25.534Z,18.75
2019-05-05T07:11:55.181Z,19.33
2019-05-05T07:14:26.418Z,19.10
2019-05-05T07:16:57.472Z,17.90
2019-05-05T07:19:26.867Z,18.93
2019-05-05T07:21:56.668Z,16.07
2019-05-05T07:24:26.097Z,20.10
2019-05-05T07:26:55.857Z,18.60
2019-05-05T07:29:25.255Z,17.63
2019-05-05T07:31:54.776Z,19.37
2019-05-05T07:34:25.533Z,17.23
2019-05-05T07:36:55.622Z,16.57
2019-05-05T07:39:25.961Z,16.47
2019-05-05T07:41:55.363Z,17.30
2019-05-05T07:44:29.314Z,18.33
2019-05-05T07:46:57.151Z,18.13
2019-05-05T07:49:26.813Z,18.15
2019-05-05T07:51:56.856Z,16.93
2019-05-05T07:54:26.585Z,16.20
2019-05-05T07:57:04.080Z,17.90
2019-05-05T07:59:34.024Z,17.75
2019-05-05T08:02:04.057Z,14.60
2019-05-05T08:04:36.472Z,17.70
2019-05-05T08:07:06.202Z,16.57
2019-05-05T08:09:44.267Z,18.63
2019-05-05T08:12:13.689Z,21.37
2019-05-05T08:14:44.458Z,19.00
2019-05-05T08:17:42.031Z,20.27
2019-05-05T08:20:14.495Z,14.73
2019-05-05T08:22:44.430Z,21.33
2019-05-05T08:25:33.574Z,18.97
2019-05-05T08:28:04.235Z,20.70
2019-05-05T08:30:54.467Z,19.20
2019-05-05T08:33:24.122Z,19.83
2019-05-05T08:35:54.226Z,17.57
2019-05-05T08:38:26.221Z,17.60
2019-05-05T08:40:55.910Z,17.63
2019-05-05T08:43:25.620Z,16.33
2019-05-05T08:46:04.938Z,17.60
2019-05-05T08:48:34.398Z,15.78
2019-05-05T08:51:05.011Z,15.77
2019-05-05T08:53:44.799Z,15.28
2019-05-05T08:56:07.996Z,17.07
2019-05-05T08:58:37.400Z,15.85
2019-05-05T09:01:07.199Z,14.70
2019-05-05T09:03:36.582Z,14.93
2019-05-05T09:06:05.971Z,14.93
2019-05-05T09:08:37.303Z,15.23
2019-05-05T09:11:07.166Z,14.50
2019-05-05T09:13:37.651Z,14.93
2019-05-05T09:16:07.024Z,13.85
2019-05-05T09:18:38.986Z,14.73
2019-05-05T09:21:08.357Z,16.80
2019-05-05T09:23:40.132Z,15.63
2019-05-05T09:26:23.977Z,15.93
2019-05-05T09:29:16.372Z,15.30
2019-05-05T09:31:46.670Z,13.67
2019-05-05T09:34:17.253Z,13.72
2019-05-05T09:36:50.382Z,13.10
2019-05-05T09:39:21.188Z,13.97
2019-05-05T09:41:50.872Z,16.07
2019-05-05T09:44:21.068Z,15.08
2019-05-05T09:46:57.121Z,15.03
2019-05-05T09:49:28.607Z,16.07
2019-05-05T09:51:58.037Z,13.93
2019-05-05T09:54:27.709Z,13.40
2019-05-05T09:56:58.708Z,12.63
2019-05-05T09:59:28.325Z,12.87
2019-05-05T10:01:58.380Z,14.00
2019-05-05T10:04:29.441Z,14.17
2019-05-05T10:06:59.032Z,12.57
2019-05-05T10:09:28.416Z,12.00
2019-05-05T10:11:57.824Z,13.40
2019-05-05T10:14:27.633Z,40.83
2019-05-05T10:16:57.964Z,21.33
2019-05-05T10:19:27.284Z,11.37
2019-05-05T10:21:56.928Z,12.30
2019-05-05T10:24:33.687Z,20.20
2019-05-05T10:27:04.745Z,12.77
2019-05-05T10:29:34.017Z,13.50
2019-05-05T10:32:04.567Z,14.40
2019-05-05T10:34:34.193Z,11.95
2019-05-05T10:37:04.340Z,13.60
2019-05-05T10:39:38.857Z,13.30
2019-05-05T10:42:08.594Z,15.07
2019-05-05T10:44:38.377Z,12.23
2019-05-05T10:47:09.248Z,11.77
2019-05-05T10:49:39.698Z,12.07
2019-05-05T10:52:09.720Z,10.50
2019-05-05T10:54:44.151Z,11.70
2019-05-05T10:57:10.513Z,11.80
2019-05-05T10:59:43.542Z,11.70
2019-05-05T11:02:14.042Z,14.83
2019-05-05T11:04:44.324Z,10.97
2019-05-05T11:07:15.306Z,14.80
2019-05-05T11:09:44.845Z,11.90
2019-05-05T11:12:14.466Z,13.40
2019-05-05T11:14:44.435Z,13.83
2019-05-05T11:17:14.504Z,12.00
2019-05-05T11:19:44.234Z,12.93
2019-05-05T11:22:14.661Z,11.47
2019-05-05T11:24:57.367Z,10.90
2019-05-05T11:27:16.272Z,12.20
2019-05-05T11:30:04.672Z,11.53
2019-05-05T11:32:51.797Z,16.27
2019-05-05T11:35:24.471Z,11.25
2019-05-05T11:37:54.972Z,13.78
2019-05-05T11:40:33.480Z,13.90
2019-05-05T11:43:03.794Z,14.50
2019-05-05T11:45:34.424Z,14.83
2019-05-05T11:48:04.417Z,12.20
2019-05-05T11:50:34.776Z,11.63
2019-05-05T11:53:04.693Z,11.30
2019-05-05T11:55:35.141Z,11.35
2019-05-05T11:58:06.477Z,11.50
2019-05-05T12:00:36.846Z,15.00
2019-05-05T12:03:09.229Z,10.43
2019-05-05T12:05:39.816Z,9.70
2019-05-05T12:08:09.969Z,11.60
2019-05-05T12:10:59.096Z,11.30
2019-05-05T12:13:28.928Z,10.57
2019-05-05T12:16:04.580Z,8.37
2019-05-05T12:18:36.153Z,10.68
2019-05-05T12:21:06.183Z,46.00
2019-05-05T12:23:38.152Z,38.60
2019-05-05T12:26:44.620Z,17.60
2019-05-05T12:29:26.969Z,11.57
2019-05-05T12:31:57.731Z,10.00
2019-05-05T12:34:30.408Z,10.13
2019-05-05T12:37:00.453Z,11.43
2019-05-05T12:39:30.128Z,9.87
2019-05-05T12:41:59.500Z,10.20
2019-05-05T12:44:48.474Z,8.20
2019-05-05T12:47:35.337Z,8.70
2019-05-05T12:50:05.597Z,8.50
2019-05-05T12:52:35.325Z,20.92
2019-05-05T12:55:06.003Z,11.57
2019-05-05T12:57:35.400Z,11.80
2019-05-05T13:00:07.215Z,15.40
2019-05-05T13:02:36.832Z,12.40
2019-05-05T13:05:08.441Z,11.70
2019-05-05T13:07:38.328Z,9.40
2019-05-05T13:10:08.588Z,11.40
2019-05-05T13:12:38.299Z,9.05
2019-05-05T13:15:08.527Z,9.80
2019-05-05T13:17:38.283Z,35.30
2019-05-05T13:20:18.491Z,11.57
2019-05-05T13:23:04.142Z,13.07
2019-05-05T13:25:55.851Z,12.00
2019-05-05T13:28:21.222Z,8.70
2019-05-05T13:30:51.122Z,8.10
2019-05-05T13:33:21.594Z,8.23
2019-05-05T13:35:55.420Z,8.50
2019-05-05T13:38:25.636Z,9.00
2019-05-05T13:40:56.344Z,8.53
2019-05-05T13:43:25.777Z,9.90
2019-05-05T13:46:20.129Z,9.23
2019-05-05T13:48:49.886Z,14.40
2019-05-05T13:51:20.482Z,9.23
2019-05-05T13:53:53.846Z,8.30
2019-05-05T13:56:27.721Z,8.50
2019-05-05T13:58:59.725Z,9.75
2019-05-05T14:01:29.048Z,9.00
2019-05-05T14:03:58.444Z,11.73
2019-05-05T14:06:28.040Z,8.68
2019-05-05T14:08:59.010Z,8.10
2019-05-05T14:11:28.640Z,8.63
2019-05-05T14:13:58.140Z,8.83
2019-05-05T14:16:27.692Z,7.75
2019-05-05T14:18:57.116Z,9.95
2019-05-05T14:21:26.497Z,11.33
2019-05-05T14:24:18.585Z,8.43
2019-05-05T14:26:48.285Z,8.07
2019-05-05T14:29:37.028Z,11.30
2019-05-05T14:32:08.032Z,11.70
2019-05-05T14:34:44.177Z,8.20
2019-05-05T14:37:30.213Z,9.27
2019-05-05T14:40:00.095Z,8.50
2019-05-05T14:42:29.488Z,8.53
2019-05-05T14:44:59.261Z,10.67
2019-05-05T14:47:28.644Z,8.80
2019-05-05T14:49:58.369Z,11.40
2019-05-05T14:52:30.050Z,7.75
2019-05-05T14:55:04.959Z,9.13
2019-05-05T14:57:40.467Z,13.22
2019-05-05T15:00:13.771Z,9.27
2019-05-05T15:02:47.543Z,6.40
2019-05-05T15:05:54.781Z,7.72
2019-05-05T15:08:41.032Z,8.30
2019-05-05T15:11:29.379Z,8.47
2019-05-05T15:13:58.776Z,11.30
2019-05-05T15:16:28.230Z,8.53
2019-05-05T15:18:58.095Z,8.43
2019-05-05T15:21:27.404Z,9.60
2019-05-05T15:23:57.168Z,9.00
2019-05-05T15:26:27.856Z,9.38
2019-05-05T15:29:01.591Z,9.70
2019-05-05T15:31:28.531Z,11.00
2019-05-05T15:33:59.252Z,14.90
2019-05-05T15:36:29.738Z,8.90
2019-05-05T15:38:59.416Z,12.90
2019-05-05T15:41:28.848Z,8.50
2019-05-05T15:44:00.254Z,9.87
2019-05-05T15:46:30.601Z,8.90
2019-05-05T15:49:00.577Z,9.70
2019-05-05T15:51:31.745Z,10.63
2019-05-05T15:54:01.124Z,8.43
2019-05-05T15:56:31.274Z,8.27
2019-05-05T15:59:01.125Z,8.53
2019-05-05T16:01:34.543Z,7.60
2019-05-05T16:04:07.342Z,9.43
2019-05-05T16:06:37.248Z,8.83
2019-05-05T16:09:09.529Z,8.50
2019-05-05T16:11:39.001Z,11.67
2019-05-05T16:14:14.440Z,9.93
2019-05-05T16:17:04.524Z,10.47
2019-05-05T16:19:45.968Z,7.60
2019-05-05T16:22:20.705Z,18.47
2019-05-05T16:25:10.192Z,9.00
2019-05-05T16:27:40.076Z,7.27
2019-05-05T16:30:14.732Z,7.60
2019-05-05T16:32:44.934Z,6.72
2019-05-05T16:35:15.265Z,6.87
2019-05-05T16:37:46.556Z,6.83
2019-05-05T16:40:18.410Z,7.03
2019-05-05T16:42:48.858Z,7.60
2019-05-05T16:45:21.923Z,9.93
2019-05-05T16:47:54.528Z,8.60
2019-05-05T16:50:29.250Z,7.85
2019-05-05T16:53:06.203Z,9.27
2019-05-05T16:55:40.461Z,9.27
2019-05-05T16:58:10.108Z,9.57
2019-05-05T17:00:40.699Z,6.57
2019-05-05T17:03:14.754Z,9.18
2019-05-05T17:05:46.747Z,7.62
2019-05-05T17:08:18.192Z,8.78
2019-05-05T17:10:47.524Z,7.40
2019-05-05T17:13:27.942Z,7.67
2019-05-05T17:16:35.358Z,6.17
2019-05-05T17:19:18.905Z,8.67
2019-05-05T17:22:07.364Z,8.30
2019-05-05T17:24:38.824Z,6.47
2019-05-05T17:27:07.866Z,7.00
2019-05-05T17:29:38.964Z,8.37
2019-05-05T17:32:08.880Z,6.73
2019-05-05T17:34:40.204Z,7.10
2019-05-05T17:37:10.220Z,6.40
2019-05-05T17:39:48.828Z,10.00
2019-05-05T17:42:29.814Z,6.50
2019-05-05T17:45:23.508Z,8.00
2019-05-05T17:47:59.240Z,9.23
2019-05-05T17:50:48.888Z,9.53
2019-05-05T17:53:28.695Z,6.60
2019-05-05T17:55:59.011Z,22.32
2019-05-05T17:58:34.045Z,17.13
2019-05-05T18:01:03.831Z,14.50
2019-05-05T18:03:34.522Z,10.33
2019-05-05T18:06:23.668Z,7.43
2019-05-05T18:09:00.179Z,6.40
2019-05-05T18:11:45.858Z,8.18
2019-05-05T18:14:21.015Z,11.07
2019-05-05T18:16:51.268Z,7.87
2019-05-05T18:19:20.946Z,6.60
2019-05-05T18:21:50.340Z,7.57
2019-05-05T18:24:19.712Z,8.63
2019-05-05T18:26:49.149Z,7.80
2019-05-05T18:29:19.360Z,7.07
2019-05-05T18:31:48.849Z,7.53
2019-05-05T18:34:20.495Z,6.50
2019-05-05T18:36:54.210Z,6.30
2019-05-05T18:39:24.713Z,7.03
2019-05-05T18:42:06.446Z,6.53
2019-05-05T18:44:40.577Z,7.67
2019-05-05T18:47:18.200Z,7.80
2019-05-05T18:49:46.732Z,7.40
2019-05-05T18:52:17.478Z,7.25
2019-05-05T18:54:47.388Z,8.70
2019-05-05T18:57:24.158Z,6.70
2019-05-05T18:59:54.705Z,8.53
2019-05-05T19:02:50.458Z,7.50
2019-05-05T19:05:53.562Z,45.10
2019-05-05T19:08:29.645Z,166.12
2019-05-05T19:10:59.932Z,217.00
2019-05-05T19:13:29.540Z,54.93
2019-05-05T19:16:00.999Z,16.80
2019-05-05T19:18:30.399Z,12.60
2019-05-05T19:21:06.196Z,9.63
2019-05-05T19:23:36.111Z,8.27
2019-05-05T19:26:07.756Z,8.77
2019-05-05T19:28:43.968Z,7.50
2019-05-05T19:31:13.885Z,10.13
2019-05-05T19:33:44.928Z,7.50
2019-05-05T19:36:18.540Z,8.00
2019-05-05T19:38:50.311Z,8.67
2019-05-05T19:41:20.817Z,7.47
2019-05-05T19:43:54.736Z,28.50
2019-05-05T19:46:38.144Z,9.17
2019-05-05T19:49:15.115Z,8.73
2019-05-05T19:51:45.340Z,8.30
2019-05-05T19:54:16.521Z,9.20
2019-05-05T19:56:46.395Z,9.40
2019-05-05T19:59:16.197Z,9.78
2019-05-05T20:01:46.834Z,10.43
2019-05-05T20:04:16.824Z,8.97
2019-05-05T20:06:46.341Z,10.03
2019-05-05T20:09:19.404Z,12.93
2019-05-05T20:11:48.808Z,9.23
2019-05-05T20:14:18.621Z,9.40
2019-05-05T20:17:07.364Z,9.33
2019-05-05T20:19:43.765Z,8.07
2019-05-05T20:22:14.588Z,8.67
2019-05-05T20:24:47.000Z,9.75
2019-05-05T20:27:20.061Z,14.63
2019-05-05T20:29:50.129Z,11.90
2019-05-05T20:32:27.045Z,23.23
2019-05-05T20:35:05.114Z,20.53
2019-05-05T20:37:54.289Z,20.70
2019-05-05T20:40:27.366Z,21.00
2019-05-05T20:42:57.072Z,16.00
2019-05-05T20:45:29.147Z,23.90
2019-05-05T20:48:04.667Z,13.43
2019-05-05T20:50:34.516Z,16.13
2019-05-05T20:53:04.986Z,11.43
2019-05-05T20:55:35.189Z,8.25
2019-05-05T20:58:04.849Z,11.30
2019-05-05T21:00:35.456Z,9.20
2019-05-05T21:03:05.613Z,11.20
2019-05-05T21:05:35.037Z,9.38
2019-05-05T21:08:05.831Z,9.73
2019-05-05T21:10:38.349Z,9.83
2019-05-05T21:13:07.822Z,8.57
2019-05-05T21:15:37.579Z,7.80
2019-05-05T21:18:07.224Z,11.07
2019-05-05T21:20:36.976Z,7.80
2019-05-05T21:23:28.509Z,7.53
2019-05-05T21:26:16.834Z,7.40
2019-05-05T21:28:46.518Z,5.90
2019-05-05T21:31:17.554Z,6.45
2019-05-05T21:33:47.839Z,6.97
2019-05-05T21:36:25.317Z,9.40
2019-05-05T21:38:54.944Z,13.67
2019-05-05T21:41:24.633Z,7.63
2019-05-05T21:43:54.915Z,8.20
2019-05-05T21:46:24.276Z,9.53
2019-05-05T21:48:54.512Z,7.73
2019-05-05T21:51:45.968Z,9.55
2019-05-05T21:54:44.038Z,8.90
2019-05-05T21:57:26.445Z,8.83
2019-05-05T21:59:58.789Z,8.30
2019-05-05T22:02:26.909Z,6.72
2019-05-05T22:04:58.688Z,10.20
2019-05-05T22:07:31.091Z,6.80
2019-05-05T22:10:00.464Z,6.60
2019-05-05T22:12:29.884Z,7.47
2019-05-05T22:14:59.410Z,7.63
2019-05-05T22:17:36.331Z,7.13
2019-05-05T22:20:15.795Z,8.10
2019-05-05T22:22:46.704Z,7.77
2019-05-05T22:25:16.146Z,8.68
2019-05-05T22:27:45.684Z,7.90
2019-05-05T22:30:19.677Z,7.10
2019-05-05T22:32:49.376Z,8.13
2019-05-05T22:35:20.284Z,10.77
2019-05-05T22:37:51.496Z,10.07
2019-05-05T22:40:24.338Z,6.97
2019-05-05T22:42:55.789Z,9.67
2019-05-05T22:45:34.210Z,8.57
2019-05-05T22:48:06.347Z,7.93
2019-05-05T22:50:37.582Z,11.45
2019-05-05T22:53:06.960Z,11.80
2019-05-05T22:55:37.637Z,12.07
2019-05-05T22:58:07.037Z,9.50
2019-05-05T23:00:36.693Z,14.70
2019-05-05T23:03:26.177Z,9.50
2019-05-05T23:06:00.114Z,8.90
2019-05-05T23:08:35.263Z,10.10
2019-05-05T23:11:04.720Z,9.20
2019-05-05T23:13:37.457Z,7.90
2019-05-05T23:16:14.691Z,9.53
2019-05-05T23:18:44.492Z,7.62
2019-05-05T23:21:24.726Z,8.60
2019-05-05T23:24:34.482Z,7.20
2019-05-05T23:27:03.901Z,7.07
2019-05-05T23:29:34.155Z,7.13
2019-05-05T23:32:04.087Z,7.50
2019-05-05T23:34:39.036Z,7.70
2019-05-05T23:37:09.666Z,6.83
2019-05-05T23:39:42.933Z,7.20
2019-05-05T23:42:18.838Z,7.23
2019-05-05T23:44:53.517Z,10.00
2019-05-05T23:47:26.460Z,9.13
2019-05-05T23:50:01.046Z,7.00
2019-05-05T23:52:32.154Z,6.67
2019-05-05T23:55:03.902Z,6.40
2019-05-05T23:57:33.432Z,7.53
